sensor_id;sensor_type;location;lat;lon;timestamp;temperature;humidity
24802;DHT22;12898;50.520;12.152;2023-03-19T00:02:19;8.20;99.90
24802;DHT22;12898;50.520;12.152;2023-03-19T00:04:46;8.20;99.90
24802;DHT22;12898;50.520;12.152;2023-03-19T00:07:12;8.10;99.90
24802;DHT22;12898;50.520;12.152;2023-03-19T00:09:39;8.10;99.90
24802;DHT22;12898;50.520;12.152;2023-03-19T00:12:05;8.10;99.90
24802;DHT22;12898;50.520;12.152;2023-03-19T00:14:31;8.10;99.90
24802;DHT22;12898;50.520;12.152;2023-03-19T00:16:57;8.10;99.90
24802;DHT22;12898;50.520;12.152;2023-03-19T00:19:22;8.10;99.90
24802;DHT22;12898;50.520;12.152;2023-03-19T00:21:48;8.10;99.90
24802;DHT22;12898;50.520;12.152;2023-03-19T00:24:14;8.00;99.90
24802;DHT22;12898;50.520;12.152;2023-03-19T00:26:41;8.00;99.90
24802;DHT22;12898;50.520;12.152;2023-03-19T00:29:07;8.00;99.90
24802;DHT22;12898;50.520;12.152;2023-03-19T00:31:33;8.00;99.80
24802;DHT22;12898;50.520;12.152;2023-03-19T00:33:59;8.10;99.90
24802;DHT22;12898;50.520;12.152;2023-03-19T00:36:26;8.10;99.70
24802;DHT22;12898;50.520;12.152;2023-03-19T00:38:53;8.10;99.90
24802;DHT22;12898;50.520;12.152;2023-03-19T00:41:19;8.10;99.70
24802;DHT22;12898;50.520;12.152;2023-03-19T00:43:46;8.10;99.70
24802;DHT22;12898;50.520;12.152;2023-03-19T00:46:12;8.00;99.30
24802;DHT22;12898;50.520;12.152;2023-03-19T00:48:39;8.00;99.90
24802;DHT22;12898;50.520;12.152;2023-03-19T00:51:06;8.00;99.70
24802;DHT22;12898;50.520;12.152;2023-03-19T00:53:41;7.90;99.70
24802;DHT22;12898;50.520;12.152;2023-03-19T00:56:09;7.90;99.90
24802;DHT22;12898;50.520;12.152;2023-03-19T00:58:36;7.80;99.90
24802;DHT22;12898;50.520;12.152;2023-03-19T01:01:06;7.80;99.90
24802;DHT22;12898;50.520;12.152;2023-03-19T01:03:32;7.80;99.90
24802;DHT22;12898;50.520;12.152;2023-03-19T01:05:58;7.80;99.90
24802;DHT22;12898;50.520;12.152;2023-03-19T01:08:24;7.80;99.80
24802;DHT22;12898;50.520;12.152;2023-03-19T01:10:51;7.80;99.90
24802;DHT22;12898;50.520;12.152;2023-03-19T01:13:17;7.70;99.90
24802;DHT22;12898;50.520;12.152;2023-03-19T01:15:43;7.70;99.90
24802;DHT22;12898;50.520;12.152;2023-03-19T01:18:10;7.70;99.90
24802;DHT22;12898;50.520;12.152;2023-03-19T01:20:38;7.60;99.90
24802;DHT22;12898;50.520;12.152;2023-03-19T01:23:05;7.60;99.90
24802;DHT22;12898;50.520;12.152;2023-03-19T01:25:32;7.60;99.90
24802;DHT22;12898;50.520;12.152;2023-03-19T01:27:58;7.60;99.90
24802;DHT22;12898;50.520;12.152;2023-03-19T01:30:23;7.60;99.90
24802;DHT22;12898;50.520;12.152;2023-03-19T01:32:49;7.50;99.90
24802;DHT22;12898;50.520;12.152;2023-03-19T01:35:15;7.50;99.90
24802;DHT22;12898;50.520;12.152;2023-03-19T01:37:41;7.50;99.90
24802;DHT22;12898;50.520;12.152;2023-03-19T01:40:09;7.50;99.90
24802;DHT22;12898;50.520;12.152;2023-03-19T01:42:55;7.40;99.90
24802;DHT22;12898;50.520;12.152;2023-03-19T01:48:02;7.30;99.90
24802;DHT22;12898;50.520;12.152;2023-03-19T01:50:43;7.30;99.90
24802;DHT22;12898;50.520;12.152;2023-03-19T01:53:11;7.20;99.90
24802;DHT22;12898;50.520;12.152;2023-03-19T01:55:38;7.10;99.90
24802;DHT22;12898;50.520;12.152;2023-03-19T01:58:05;7.10;99.90
24802;DHT22;12898;50.520;12.152;2023-03-19T02:00:33;7.10;99.90
24802;DHT22;12898;50.520;12.152;2023-03-19T02:03:00;7.00;99.90
24802;DHT22;12898;50.520;12.152;2023-03-19T02:05:27;7.00;99.90
24802;DHT22;12898;50.520;12.152;2023-03-19T02:07:57;6.90;99.90
24802;DHT22;12898;50.520;12.152;2023-03-19T02:10:25;6.90;99.90
24802;DHT22;12898;50.520;12.152;2023-03-19T02:12:51;6.80;99.90
24802;DHT22;12898;50.520;12.152;2023-03-19T02:15:17;6.90;99.90
24802;DHT22;12898;50.520;12.152;2023-03-19T02:17:43;6.90;99.90
24802;DHT22;12898;50.520;12.152;2023-03-19T02:20:19;6.90;99.90
24802;DHT22;12898;50.520;12.152;2023-03-19T02:26:05;6.80;99.90
24802;DHT22;12898;50.520;12.152;2023-03-19T02:28:33;6.60;99.90
24802;DHT22;12898;50.520;12.152;2023-03-19T02:30:59;6.60;99.90
24802;DHT22;12898;50.520;12.152;2023-03-19T02:33:25;6.50;99.90
24802;DHT22;12898;50.520;12.152;2023-03-19T02:35:52;6.50;99.90
24802;DHT22;12898;50.520;12.152;2023-03-19T02:38:18;6.50;99.90
24802;DHT22;12898;50.520;12.152;2023-03-19T02:41:11;6.50;99.90
24802;DHT22;12898;50.520;12.152;2023-03-19T02:43:38;6.40;99.90
24802;DHT22;12898;50.520;12.152;2023-03-19T02:46:08;6.50;99.90
24802;DHT22;12898;50.520;12.152;2023-03-19T02:48:36;6.40;99.90
24802;DHT22;12898;50.520;12.152;2023-03-19T02:51:03;6.40;99.90
24802;DHT22;12898;50.520;12.152;2023-03-19T02:53:29;6.30;99.90
24802;DHT22;12898;50.520;12.152;2023-03-19T02:55:54;6.20;99.90
24802;DHT22;12898;50.520;12.152;2023-03-19T02:58:20;6.10;99.90
24802;DHT22;12898;50.520;12.152;2023-03-19T03:00:46;6.10;99.90
24802;DHT22;12898;50.520;12.152;2023-03-19T03:03:12;5.90;99.90
24802;DHT22;12898;50.520;12.152;2023-03-19T03:05:38;6.00;99.90
24802;DHT22;12898;50.520;12.152;2023-03-19T03:08:03;6.00;99.90
24802;DHT22;12898;50.520;12.152;2023-03-19T03:10:31;6.10;99.90
24802;DHT22;12898;50.520;12.152;2023-03-19T03:12:58;6.10;99.90
24802;DHT22;12898;50.520;12.152;2023-03-19T03:15:24;6.10;99.90
24802;DHT22;12898;50.520;12.152;2023-03-19T03:17:49;6.10;99.90
24802;DHT22;12898;50.520;12.152;2023-03-19T03:20:16;6.10;99.90
24802;DHT22;12898;50.520;12.152;2023-03-19T03:22:42;6.10;99.90
24802;DHT22;12898;50.520;12.152;2023-03-19T03:25:09;6.10;99.90
24802;DHT22;12898;50.520;12.152;2023-03-19T03:27:36;6.20;99.90
24802;DHT22;12898;50.520;12.152;2023-03-19T03:30:04;6.10;99.90
24802;DHT22;12898;50.520;12.152;2023-03-19T03:32:32;6.10;99.90
24802;DHT22;12898;50.520;12.152;2023-03-19T03:34:58;6.20;99.90
24802;DHT22;12898;50.520;12.152;2023-03-19T03:37:24;6.20;99.90
24802;DHT22;12898;50.520;12.152;2023-03-19T03:39:49;6.30;99.90
24802;DHT22;12898;50.520;12.152;2023-03-19T03:42:15;6.40;99.90
24802;DHT22;12898;50.520;12.152;2023-03-19T03:44:41;6.40;99.90
24802;DHT22;12898;50.520;12.152;2023-03-19T03:47:08;6.40;99.90
24802;DHT22;12898;50.520;12.152;2023-03-19T03:49:33;6.40;99.90
24802;DHT22;12898;50.520;12.152;2023-03-19T03:51:59;6.50;99.90
24802;DHT22;12898;50.520;12.152;2023-03-19T03:54:25;6.50;99.90
24802;DHT22;12898;50.520;12.152;2023-03-19T03:56:50;6.50;99.90
24802;DHT22;12898;50.520;12.152;2023-03-19T03:59:16;6.50;99.90
24802;DHT22;12898;50.520;12.152;2023-03-19T04:01:42;6.50;99.90
24802;DHT22;12898;50.520;12.152;2023-03-19T04:04:08;6.50;99.90
24802;DHT22;12898;50.520;12.152;2023-03-19T04:06:33;6.60;99.90
24802;DHT22;12898;50.520;12.152;2023-03-19T04:08:59;6.60;99.90
24802;DHT22;12898;50.520;12.152;2023-03-19T04:11:26;6.60;99.90
24802;DHT22;12898;50.520;12.152;2023-03-19T04:13:54;6.60;99.90
24802;DHT22;12898;50.520;12.152;2023-03-19T04:16:23;6.60;99.90
24802;DHT22;12898;50.520;12.152;2023-03-19T04:18:49;6.50;99.90
24802;DHT22;12898;50.520;12.152;2023-03-19T04:21:15;6.50;99.90
24802;DHT22;12898;50.520;12.152;2023-03-19T04:23:40;6.40;99.90
24802;DHT22;12898;50.520;12.152;2023-03-19T04:26:06;6.40;99.90
24802;DHT22;12898;50.520;12.152;2023-03-19T04:28:33;6.40;99.90
24802;DHT22;12898;50.520;12.152;2023-03-19T04:31:00;6.40;99.90
24802;DHT22;12898;50.520;12.152;2023-03-19T04:33:28;6.40;99.90
24802;DHT22;12898;50.520;12.152;2023-03-19T04:35:54;6.40;99.90
24802;DHT22;12898;50.520;12.152;2023-03-19T04:38:21;6.40;99.90
24802;DHT22;12898;50.520;12.152;2023-03-19T04:40:47;6.40;99.90
24802;DHT22;12898;50.520;12.152;2023-03-19T04:43:14;6.40;99.90
24802;DHT22;12898;50.520;12.152;2023-03-19T04:45:40;6.40;99.90
24802;DHT22;12898;50.520;12.152;2023-03-19T04:48:06;6.40;99.90
24802;DHT22;12898;50.520;12.152;2023-03-19T04:50:33;6.40;99.90
24802;DHT22;12898;50.520;12.152;2023-03-19T04:52:59;6.40;99.90
24802;DHT22;12898;50.520;12.152;2023-03-19T04:55:25;6.30;99.90
24802;DHT22;12898;50.520;12.152;2023-03-19T04:57:51;6.30;99.90
24802;DHT22;12898;50.520;12.152;2023-03-19T05:00:17;6.30;99.90
24802;DHT22;12898;50.520;12.152;2023-03-19T05:02:43;6.30;99.90
24802;DHT22;12898;50.520;12.152;2023-03-19T05:05:12;6.20;99.90
24802;DHT22;12898;50.520;12.152;2023-03-19T05:07:38;6.20;99.90
24802;DHT22;12898;50.520;12.152;2023-03-19T05:10:05;6.20;99.90
24802;DHT22;12898;50.520;12.152;2023-03-19T05:12:31;6.20;99.90
24802;DHT22;12898;50.520;12.152;2023-03-19T05:14:57;6.20;99.90
24802;DHT22;12898;50.520;12.152;2023-03-19T05:17:23;6.10;99.90
24802;DHT22;12898;50.520;12.152;2023-03-19T05:19:49;6.10;99.90
24802;DHT22;12898;50.520;12.152;2023-03-19T05:22:17;6.00;99.90
24802;DHT22;12898;50.520;12.152;2023-03-19T05:24:43;6.00;99.90
24802;DHT22;12898;50.520;12.152;2023-03-19T05:27:08;6.00;99.90
24802;DHT22;12898;50.520;12.152;2023-03-19T05:29:34;6.00;99.90
24802;DHT22;12898;50.520;12.152;2023-03-19T05:32:00;6.00;99.90
24802;DHT22;12898;50.520;12.152;2023-03-19T05:34:28;6.00;99.90
24802;DHT22;12898;50.520;12.152;2023-03-19T05:36:53;6.00;99.90
24802;DHT22;12898;50.520;12.152;2023-03-19T05:39:19;6.10;99.90
24802;DHT22;12898;50.520;12.152;2023-03-19T05:41:45;6.10;99.90
24802;DHT22;12898;50.520;12.152;2023-03-19T05:44:11;6.10;99.90
24802;DHT22;12898;50.520;12.152;2023-03-19T05:46:37;6.20;99.90
24802;DHT22;12898;50.520;12.152;2023-03-19T05:49:03;6.20;99.90
24802;DHT22;12898;50.520;12.152;2023-03-19T05:51:30;6.30;99.90
24802;DHT22;12898;50.520;12.152;2023-03-19T05:53:56;6.40;99.90
24802;DHT22;12898;50.520;12.152;2023-03-19T05:56:22;6.40;99.90
24802;DHT22;12898;50.520;12.152;2023-03-19T05:58:47;6.50;99.90
24802;DHT22;12898;50.520;12.152;2023-03-19T06:01:13;6.50;99.90
24802;DHT22;12898;50.520;12.152;2023-03-19T06:03:39;6.60;99.90
24802;DHT22;12898;50.520;12.152;2023-03-19T06:06:05;6.70;99.90
24802;DHT22;12898;50.520;12.152;2023-03-19T06:08:31;6.70;99.90
24802;DHT22;12898;50.520;12.152;2023-03-19T06:10:57;6.70;99.90
24802;DHT22;12898;50.520;12.152;2023-03-19T06:13:23;6.70;99.90
24802;DHT22;12898;50.520;12.152;2023-03-19T06:15:48;6.80;99.90
24802;DHT22;12898;50.520;12.152;2023-03-19T06:18:15;6.90;99.90
24802;DHT22;12898;50.520;12.152;2023-03-19T06:20:41;6.90;99.90
24802;DHT22;12898;50.520;12.152;2023-03-19T06:23:07;7.00;99.90
24802;DHT22;12898;50.520;12.152;2023-03-19T06:25:33;7.00;99.90
24802;DHT22;12898;50.520;12.152;2023-03-19T06:27:58;7.10;99.90
24802;DHT22;12898;50.520;12.152;2023-03-19T06:30:24;7.20;99.90
24802;DHT22;12898;50.520;12.152;2023-03-19T06:32:50;7.20;99.90
24802;DHT22;12898;50.520;12.152;2023-03-19T06:35:16;7.20;99.90
24802;DHT22;12898;50.520;12.152;2023-03-19T06:37:42;7.30;99.90
24802;DHT22;12898;50.520;12.152;2023-03-19T06:40:09;7.30;99.90
24802;DHT22;12898;50.520;12.152;2023-03-19T06:42:34;7.30;99.90
24802;DHT22;12898;50.520;12.152;2023-03-19T06:45:00;7.40;99.90
24802;DHT22;12898;50.520;12.152;2023-03-19T06:47:26;7.50;99.90
24802;DHT22;12898;50.520;12.152;2023-03-19T06:49:52;7.60;99.90
24802;DHT22;12898;50.520;12.152;2023-03-19T06:52:18;7.60;99.90
24802;DHT22;12898;50.520;12.152;2023-03-19T06:54:44;7.70;99.90
24802;DHT22;12898;50.520;12.152;2023-03-19T06:57:09;7.80;99.90
24802;DHT22;12898;50.520;12.152;2023-03-19T06:59:35;7.80;99.90
24802;DHT22;12898;50.520;12.152;2023-03-19T07:02:01;7.90;99.90
24802;DHT22;12898;50.520;12.152;2023-03-19T07:04:28;8.00;99.90
24802;DHT22;12898;50.520;12.152;2023-03-19T07:06:54;8.10;99.90
24802;DHT22;12898;50.520;12.152;2023-03-19T07:09:19;8.10;99.90
24802;DHT22;12898;50.520;12.152;2023-03-19T07:11:45;8.20;99.90
24802;DHT22;12898;50.520;12.152;2023-03-19T07:14:11;8.20;99.90
24802;DHT22;12898;50.520;12.152;2023-03-19T07:16:36;8.30;99.90
24802;DHT22;12898;50.520;12.152;2023-03-19T07:19:02;8.30;99.90
24802;DHT22;12898;50.520;12.152;2023-03-19T07:21:28;8.30;99.90
24802;DHT22;12898;50.520;12.152;2023-03-19T07:23:54;8.40;99.90
24802;DHT22;12898;50.520;12.152;2023-03-19T07:26:20;8.40;99.90
24802;DHT22;12898;50.520;12.152;2023-03-19T07:28:45;8.50;99.90
24802;DHT22;12898;50.520;12.152;2023-03-19T07:31:11;8.60;99.90
24802;DHT22;12898;50.520;12.152;2023-03-19T07:33:37;8.60;99.90
24802;DHT22;12898;50.520;12.152;2023-03-19T07:36:03;8.70;99.90
24802;DHT22;12898;50.520;12.152;2023-03-19T07:38:29;8.80;99.90
24802;DHT22;12898;50.520;12.152;2023-03-19T07:40:54;9.00;99.90
24802;DHT22;12898;50.520;12.152;2023-03-19T07:43:20;9.10;99.90
24802;DHT22;12898;50.520;12.152;2023-03-19T07:45:46;9.30;99.90
24802;DHT22;12898;50.520;12.152;2023-03-19T07:48:11;9.40;99.90
24802;DHT22;12898;50.520;12.152;2023-03-19T07:50:37;9.60;99.90
24802;DHT22;12898;50.520;12.152;2023-03-19T07:53:03;9.80;99.90
24802;DHT22;12898;50.520;12.152;2023-03-19T07:55:29;10.00;99.90
24802;DHT22;12898;50.520;12.152;2023-03-19T07:57:55;10.10;99.90
24802;DHT22;12898;50.520;12.152;2023-03-19T08:00:21;10.30;99.90
24802;DHT22;12898;50.520;12.152;2023-03-19T08:02:47;10.40;99.90
24802;DHT22;12898;50.520;12.152;2023-03-19T08:05:12;10.50;99.90
24802;DHT22;12898;50.520;12.152;2023-03-19T08:07:39;10.70;99.10
24802;DHT22;12898;50.520;12.152;2023-03-19T08:10:05;10.80;99.20
24802;DHT22;12898;50.520;12.152;2023-03-19T08:12:31;11.00;99.90
24802;DHT22;12898;50.520;12.152;2023-03-19T08:14:59;11.20;98.10
24802;DHT22;12898;50.520;12.152;2023-03-19T08:17:24;11.40;96.20
24802;DHT22;12898;50.520;12.152;2023-03-19T08:19:50;11.50;96.90
24802;DHT22;12898;50.520;12.152;2023-03-19T08:22:16;11.80;95.70
24802;DHT22;12898;50.520;12.152;2023-03-19T08:24:41;12.10;94.40
24802;DHT22;12898;50.520;12.152;2023-03-19T08:27:07;12.30;92.10
24802;DHT22;12898;50.520;12.152;2023-03-19T08:29:33;12.40;91.40
24802;DHT22;12898;50.520;12.152;2023-03-19T08:31:58;12.70;91.00
24802;DHT22;12898;50.520;12.152;2023-03-19T08:34:25;13.00;90.00
24802;DHT22;12898;50.520;12.152;2023-03-19T08:36:51;13.10;85.30
24802;DHT22;12898;50.520;12.152;2023-03-19T08:39:17;13.30;83.90
24802;DHT22;12898;50.520;12.152;2023-03-19T08:41:42;13.40;84.80
24802;DHT22;12898;50.520;12.152;2023-03-19T08:44:08;13.40;81.60
24802;DHT22;12898;50.520;12.152;2023-03-19T08:46:34;13.50;83.00
24802;DHT22;12898;50.520;12.152;2023-03-19T08:48:59;13.60;80.40
24802;DHT22;12898;50.520;12.152;2023-03-19T08:51:25;13.80;81.40
24802;DHT22;12898;50.520;12.152;2023-03-19T08:53:52;14.00;80.20
24802;DHT22;12898;50.520;12.152;2023-03-19T08:56:18;14.00;77.70
24802;DHT22;12898;50.520;12.152;2023-03-19T08:58:44;14.10;77.10
24802;DHT22;12898;50.520;12.152;2023-03-19T09:01:12;14.10;77.40
24802;DHT22;12898;50.520;12.152;2023-03-19T09:03:40;14.10;77.70
24802;DHT22;12898;50.520;12.152;2023-03-19T09:06:09;14.20;78.90
24802;DHT22;12898;50.520;12.152;2023-03-19T09:08:36;14.10;78.10
24802;DHT22;12898;50.520;12.152;2023-03-19T09:11:03;14.20;78.10
24802;DHT22;12898;50.520;12.152;2023-03-19T09:13:30;14.30;78.90
24802;DHT22;12898;50.520;12.152;2023-03-19T09:15:55;14.50;80.00
24802;DHT22;12898;50.520;12.152;2023-03-19T09:18:21;14.70;79.10
24802;DHT22;12898;50.520;12.152;2023-03-19T09:20:53;14.70;75.80
24802;DHT22;12898;50.520;12.152;2023-03-19T09:23:20;14.80;76.10
24802;DHT22;12898;50.520;12.152;2023-03-19T09:25:46;14.90;75.20
24802;DHT22;12898;50.520;12.152;2023-03-19T09:28:11;15.00;75.50
24802;DHT22;12898;50.520;12.152;2023-03-19T09:30:37;15.10;76.10
24802;DHT22;12898;50.520;12.152;2023-03-19T09:33:04;15.40;75.20
24802;DHT22;12898;50.520;12.152;2023-03-19T09:35:30;15.50;74.70
24802;DHT22;12898;50.520;12.152;2023-03-19T09:37:57;15.50;74.20
24802;DHT22;12898;50.520;12.152;2023-03-19T09:40:33;15.50;74.50
24802;DHT22;12898;50.520;12.152;2023-03-19T09:46:17;15.20;73.90
24802;DHT22;12898;50.520;12.152;2023-03-19T09:48:54;15.20;74.60
24802;DHT22;12898;50.520;12.152;2023-03-19T09:51:33;15.40;76.70
24802;DHT22;12898;50.520;12.152;2023-03-19T09:54:07;15.50;76.00
24802;DHT22;12898;50.520;12.152;2023-03-19T09:56:41;15.50;75.10
24802;DHT22;12898;50.520;12.152;2023-03-19T09:59:08;15.60;75.70
24802;DHT22;12898;50.520;12.152;2023-03-19T10:01:35;15.70;74.10
24802;DHT22;12898;50.520;12.152;2023-03-19T10:04:39;15.70;73.80
24802;DHT22;12898;50.520;12.152;2023-03-19T10:12:58;16.00;75.90
24802;DHT22;12898;50.520;12.152;2023-03-19T10:15:32;16.00;76.90
24802;DHT22;12898;50.520;12.152;2023-03-19T10:18:11;15.90;77.40
24802;DHT22;12898;50.520;12.152;2023-03-19T10:20:52;16.00;76.40
24802;DHT22;12898;50.520;12.152;2023-03-19T10:26:19;16.20;75.70
24802;DHT22;12898;50.520;12.152;2023-03-19T10:29:10;16.30;75.70
24802;DHT22;12898;50.520;12.152;2023-03-19T10:31:52;16.40;75.00
24802;DHT22;12898;50.520;12.152;2023-03-19T10:34:35;16.60;75.60
24802;DHT22;12898;50.520;12.152;2023-03-19T10:37:13;16.60;75.50
24802;DHT22;12898;50.520;12.152;2023-03-19T10:39:44;16.60;73.60
24802;DHT22;12898;50.520;12.152;2023-03-19T10:44:59;16.60;75.30
24802;DHT22;12898;50.520;12.152;2023-03-19T10:47:36;16.80;75.30
24802;DHT22;12898;50.520;12.152;2023-03-19T10:50:03;17.00;74.20
24802;DHT22;12898;50.520;12.152;2023-03-19T10:52:32;17.10;73.20
24802;DHT22;12898;50.520;12.152;2023-03-19T10:55:15;17.00;71.60
24802;DHT22;12898;50.520;12.152;2023-03-19T10:57:45;16.90;71.70
24802;DHT22;12898;50.520;12.152;2023-03-19T11:00:16;16.50;71.90
24802;DHT22;12898;50.520;12.152;2023-03-19T11:02:47;16.20;74.50
24802;DHT22;12898;50.520;12.152;2023-03-19T11:08:00;16.40;76.20
24802;DHT22;12898;50.520;12.152;2023-03-19T11:10:32;16.60;76.40
24802;DHT22;12898;50.520;12.152;2023-03-19T11:13:05;16.80;76.80
24802;DHT22;12898;50.520;12.152;2023-03-19T11:15:38;16.80;73.70
24802;DHT22;12898;50.520;12.152;2023-03-19T11:20:39;16.70;76.10
24802;DHT22;12898;50.520;12.152;2023-03-19T11:23:12;16.70;76.50
24802;DHT22;12898;50.520;12.152;2023-03-19T11:25:45;16.70;76.80
24802;DHT22;12898;50.520;12.152;2023-03-19T11:28:15;16.70;76.40
24802;DHT22;12898;50.520;12.152;2023-03-19T11:31:05;16.60;77.00
24802;DHT22;12898;50.520;12.152;2023-03-19T11:34:06;16.30;77.00
24802;DHT22;12898;50.520;12.152;2023-03-19T11:37:03;16.00;77.40
24802;DHT22;12898;50.520;12.152;2023-03-19T11:40:08;15.60;79.90
24802;DHT22;12898;50.520;12.152;2023-03-19T11:46:00;15.10;82.90
24802;DHT22;12898;50.520;12.152;2023-03-19T11:49:14;14.90;84.10
24802;DHT22;12898;50.520;12.152;2023-03-19T11:55:15;14.70;85.30
24802;DHT22;12898;50.520;12.152;2023-03-19T11:57:56;14.40;86.50
24802;DHT22;12898;50.520;12.152;2023-03-19T12:05:58;14.00;90.00
24802;DHT22;12898;50.520;12.152;2023-03-19T12:08:50;13.80;90.80
24802;DHT22;12898;50.520;12.152;2023-03-19T12:20:35;12.90;97.60
24802;DHT22;12898;50.520;12.152;2023-03-19T12:23:16;12.80;98.60
24802;DHT22;12898;50.520;12.152;2023-03-19T12:26:04;12.60;99.00
24802;DHT22;12898;50.520;12.152;2023-03-19T12:29:22;12.60;99.90
24802;DHT22;12898;50.520;12.152;2023-03-19T12:33:17;12.60;99.90
24802;DHT22;12898;50.520;12.152;2023-03-19T12:35:30;12.60;99.90
24802;DHT22;12898;50.520;12.152;2023-03-19T12:38:22;12.50;99.90
24802;DHT22;12898;50.520;12.152;2023-03-19T12:41:04;12.40;99.90
24802;DHT22;12898;50.520;12.152;2023-03-19T12:51:54;12.20;99.90
24802;DHT22;12898;50.520;12.152;2023-03-19T12:54:25;12.10;99.90
24802;DHT22;12898;50.520;12.152;2023-03-19T13:00:02;11.80;99.90
24802;DHT22;12898;50.520;12.152;2023-03-19T13:02:37;11.80;99.90
24802;DHT22;12898;50.520;12.152;2023-03-19T13:05:25;11.80;99.90
24802;DHT22;12898;50.520;12.152;2023-03-19T13:10:47;11.90;99.90
24802;DHT22;12898;50.520;12.152;2023-03-19T13:16:52;11.80;99.90
24802;DHT22;12898;50.520;12.152;2023-03-19T13:22:07;12.10;99.90
24802;DHT22;12898;50.520;12.152;2023-03-19T13:24:37;12.20;99.90
24802;DHT22;12898;50.520;12.152;2023-03-19T13:27:06;12.30;99.90
24802;DHT22;12898;50.520;12.152;2023-03-19T13:29:35;12.40;99.90
24802;DHT22;12898;50.520;12.152;2023-03-19T13:32:21;12.40;99.90
24802;DHT22;12898;50.520;12.152;2023-03-19T13:34:48;12.50;99.90
24802;DHT22;12898;50.520;12.152;2023-03-19T13:37:18;12.70;99.90
24802;DHT22;12898;50.520;12.152;2023-03-19T13:39:46;12.70;99.90
24802;DHT22;12898;50.520;12.152;2023-03-19T13:42:35;12.60;99.90
24802;DHT22;12898;50.520;12.152;2023-03-19T13:47:57;12.80;99.90
24802;DHT22;12898;50.520;12.152;2023-03-19T13:50:26;12.90;99.90
24802;DHT22;12898;50.520;12.152;2023-03-19T13:53:11;13.10;99.90
24802;DHT22;12898;50.520;12.152;2023-03-19T13:55:54;13.20;99.90
24802;DHT22;12898;50.520;12.152;2023-03-19T13:58:27;13.40;99.90
24802;DHT22;12898;50.520;12.152;2023-03-19T14:01:35;13.40;99.90
24802;DHT22;12898;50.520;12.152;2023-03-19T14:06:44;13.40;99.90
24802;DHT22;12898;50.520;12.152;2023-03-19T14:09:40;13.50;99.90
24802;DHT22;12898;50.520;12.152;2023-03-19T14:12:32;13.60;99.90
24802;DHT22;12898;50.520;12.152;2023-03-19T14:15:03;13.50;99.90
24802;DHT22;12898;50.520;12.152;2023-03-19T14:21:04;13.50;99.90
24802;DHT22;12898;50.520;12.152;2023-03-19T14:23:33;13.50;99.90
24802;DHT22;12898;50.520;12.152;2023-03-19T14:28:41;13.40;99.90
24802;DHT22;12898;50.520;12.152;2023-03-19T14:34:33;13.10;99.90
24802;DHT22;12898;50.520;12.152;2023-03-19T14:37:19;13.00;99.90
24802;DHT22;12898;50.520;12.152;2023-03-19T14:40:10;13.00;99.90
24802;DHT22;12898;50.520;12.152;2023-03-19T14:43:48;12.90;99.90
24802;DHT22;12898;50.520;12.152;2023-03-19T14:45:58;12.80;99.90
24802;DHT22;12898;50.520;12.152;2023-03-19T14:54:44;12.70;99.90
24802;DHT22;12898;50.520;12.152;2023-03-19T14:57:19;12.70;99.90
24802;DHT22;12898;50.520;12.152;2023-03-19T14:59:47;12.70;99.90
24802;DHT22;12898;50.520;12.152;2023-03-19T15:02:35;12.70;99.90
24802;DHT22;12898;50.520;12.152;2023-03-19T15:08:02;12.60;99.90
24802;DHT22;12898;50.520;12.152;2023-03-19T15:10:43;12.70;99.90
24802;DHT22;12898;50.520;12.152;2023-03-19T15:13:20;12.80;99.90
24802;DHT22;12898;50.520;12.152;2023-03-19T15:16:27;12.80;99.90
24802;DHT22;12898;50.520;12.152;2023-03-19T15:18:57;13.00;99.90
24802;DHT22;12898;50.520;12.152;2023-03-19T15:21:23;13.20;99.90
24802;DHT22;12898;50.520;12.152;2023-03-19T15:23:49;13.20;99.90
24802;DHT22;12898;50.520;12.152;2023-03-19T15:26:15;13.40;99.90
24802;DHT22;12898;50.520;12.152;2023-03-19T15:28:45;13.50;99.90
24802;DHT22;12898;50.520;12.152;2023-03-19T15:31:12;13.70;99.90
24802;DHT22;12898;50.520;12.152;2023-03-19T15:33:39;13.90;99.90
24802;DHT22;12898;50.520;12.152;2023-03-19T15:38:51;14.40;99.90
24802;DHT22;12898;50.520;12.152;2023-03-19T15:41:20;14.60;99.90
24802;DHT22;12898;50.520;12.152;2023-03-19T15:43:47;14.80;99.90
24802;DHT22;12898;50.520;12.152;2023-03-19T15:46:15;14.90;99.50
24802;DHT22;12898;50.520;12.152;2023-03-19T15:49:14;14.80;98.70
24802;DHT22;12898;50.520;12.152;2023-03-19T15:51:41;14.70;99.30
24802;DHT22;12898;50.520;12.152;2023-03-19T15:54:08;14.70;98.60
24802;DHT22;12898;50.520;12.152;2023-03-19T15:56:34;14.60;98.50
24802;DHT22;12898;50.520;12.152;2023-03-19T15:59:00;14.50;98.80
24802;DHT22;12898;50.520;12.152;2023-03-19T16:01:30;14.40;98.80
24802;DHT22;12898;50.520;12.152;2023-03-19T16:04:06;14.30;99.90
24802;DHT22;12898;50.520;12.152;2023-03-19T16:06:37;14.20;98.90
24802;DHT22;12898;50.520;12.152;2023-03-19T16:11:44;14.10;99.90
24802;DHT22;12898;50.520;12.152;2023-03-19T16:16:40;14.00;99.90
24802;DHT22;12898;50.520;12.152;2023-03-19T16:19:34;13.90;99.90
24802;DHT22;12898;50.520;12.152;2023-03-19T16:22:02;13.70;99.90
24802;DHT22;12898;50.520;12.152;2023-03-19T16:24:37;13.60;99.90
24802;DHT22;12898;50.520;12.152;2023-03-19T16:27:19;13.40;99.90
24802;DHT22;12898;50.520;12.152;2023-03-19T16:29:54;13.30;99.90
24802;DHT22;12898;50.520;12.152;2023-03-19T16:32:23;13.20;99.90
24802;DHT22;12898;50.520;12.152;2023-03-19T16:35:04;13.10;99.90
24802;DHT22;12898;50.520;12.152;2023-03-19T16:37:51;13.00;99.90
24802;DHT22;12898;50.520;12.152;2023-03-19T16:42:52;12.70;99.90
24802;DHT22;12898;50.520;12.152;2023-03-19T16:45:29;12.60;99.90
24802;DHT22;12898;50.520;12.152;2023-03-19T16:48:00;12.40;99.90
24802;DHT22;12898;50.520;12.152;2023-03-19T16:50:40;12.30;99.90
24802;DHT22;12898;50.520;12.152;2023-03-19T16:53:21;12.20;99.90
24802;DHT22;12898;50.520;12.152;2023-03-19T16:55:52;12.00;99.90
24802;DHT22;12898;50.520;12.152;2023-03-19T17:01:00;11.60;99.90
24802;DHT22;12898;50.520;12.152;2023-03-19T17:03:27;11.40;99.90
24802;DHT22;12898;50.520;12.152;2023-03-19T17:05:55;11.10;99.90
24802;DHT22;12898;50.520;12.152;2023-03-19T17:08:21;10.80;99.90
24802;DHT22;12898;50.520;12.152;2023-03-19T17:10:50;10.60;99.90
24802;DHT22;12898;50.520;12.152;2023-03-19T17:13:22;10.50;99.90
24802;DHT22;12898;50.520;12.152;2023-03-19T17:15:59;10.30;99.90
24802;DHT22;12898;50.520;12.152;2023-03-19T17:18:32;10.20;99.90
24802;DHT22;12898;50.520;12.152;2023-03-19T17:21:16;10.10;99.90
24802;DHT22;12898;50.520;12.152;2023-03-19T17:23:46;9.90;99.90
24802;DHT22;12898;50.520;12.152;2023-03-19T17:26:23;9.70;99.90
24802;DHT22;12898;50.520;12.152;2023-03-19T17:28:50;9.50;99.90